sensor_id;sensor_type;location;lat;lon;timestamp;temperature;humidity
25640;DHT22;13497;48.322;16.204;2022-11-13T00:02:25;4.50;99.90
25640;DHT22;13497;48.322;16.204;2022-11-13T00:04:50;4.50;99.90
25640;DHT22;13497;48.322;16.204;2022-11-13T00:07:16;4.40;99.90
25640;DHT22;13497;48.322;16.204;2022-11-13T00:09:41;4.40;99.90
25640;DHT22;13497;48.322;16.204;2022-11-13T00:12:07;4.20;99.90
25640;DHT22;13497;48.322;16.204;2022-11-13T00:14:33;4.20;99.90
25640;DHT22;13497;48.322;16.204;2022-11-13T00:16:58;4.30;99.90
25640;DHT22;13497;48.322;16.204;2022-11-13T00:19:24;4.30;99.90
25640;DHT22;13497;48.322;16.204;2022-11-13T00:21:49;4.30;99.90
25640;DHT22;13497;48.322;16.204;2022-11-13T00:24:15;4.30;99.90
25640;DHT22;13497;48.322;16.204;2022-11-13T00:26:41;4.30;99.90
25640;DHT22;13497;48.322;16.204;2022-11-13T00:29:08;4.30;99.90
25640;DHT22;13497;48.322;16.204;2022-11-13T00:31:33;4.10;99.90
25640;DHT22;13497;48.322;16.204;2022-11-13T00:33:59;4.10;99.90
25640;DHT22;13497;48.322;16.204;2022-11-13T00:36:26;4.00;99.90
25640;DHT22;13497;48.322;16.204;2022-11-13T00:38:53;4.00;99.90
25640;DHT22;13497;48.322;16.204;2022-11-13T00:41:19;3.90;99.90
25640;DHT22;13497;48.322;16.204;2022-11-13T00:43:45;3.90;99.90
25640;DHT22;13497;48.322;16.204;2022-11-13T00:46:10;3.80;99.90
25640;DHT22;13497;48.322;16.204;2022-11-13T00:48:36;3.70;99.90
25640;DHT22;13497;48.322;16.204;2022-11-13T00:51:02;3.60;99.90
25640;DHT22;13497;48.322;16.204;2022-11-13T00:53:28;3.60;99.90
25640;DHT22;13497;48.322;16.204;2022-11-13T00:55:54;3.70;99.90
25640;DHT22;13497;48.322;16.204;2022-11-13T00:58:19;3.70;99.90
25640;DHT22;13497;48.322;16.204;2022-11-13T01:00:46;3.70;99.90
25640;DHT22;13497;48.322;16.204;2022-11-13T01:03:13;3.70;99.90
25640;DHT22;13497;48.322;16.204;2022-11-13T01:05:41;3.70;99.90
25640;DHT22;13497;48.322;16.204;2022-11-13T01:08:07;3.70;99.90
25640;DHT22;13497;48.322;16.204;2022-11-13T01:10:34;3.70;99.90
25640;DHT22;13497;48.322;16.204;2022-11-13T01:13:02;3.70;99.90
25640;DHT22;13497;48.322;16.204;2022-11-13T01:15:28;3.80;99.90
25640;DHT22;13497;48.322;16.204;2022-11-13T01:17:56;3.80;99.90
25640;DHT22;13497;48.322;16.204;2022-11-13T01:20:23;3.80;99.90
25640;DHT22;13497;48.322;16.204;2022-11-13T01:22:49;3.80;99.90
25640;DHT22;13497;48.322;16.204;2022-11-13T01:25:15;4.00;99.90
25640;DHT22;13497;48.322;16.204;2022-11-13T01:27:41;4.10;99.90
25640;DHT22;13497;48.322;16.204;2022-11-13T01:30:07;4.00;99.90
25640;DHT22;13497;48.322;16.204;2022-11-13T01:32:33;4.00;99.90
25640;DHT22;13497;48.322;16.204;2022-11-13T01:34:59;4.10;99.90
25640;DHT22;13497;48.322;16.204;2022-11-13T01:37:25;4.50;99.90
25640;DHT22;13497;48.322;16.204;2022-11-13T01:39:50;4.70;99.90
25640;DHT22;13497;48.322;16.204;2022-11-13T01:42:16;4.90;99.90
25640;DHT22;13497;48.322;16.204;2022-11-13T01:44:52;5.10;99.90
25640;DHT22;13497;48.322;16.204;2022-11-13T01:47:18;5.20;99.90
25640;DHT22;13497;48.322;16.204;2022-11-13T01:49:45;5.40;99.90
25640;DHT22;13497;48.322;16.204;2022-11-13T01:55:10;5.60;99.90
25640;DHT22;13497;48.322;16.204;2022-11-13T01:57:36;5.70;99.90
25640;DHT22;13497;48.322;16.204;2022-11-13T02:00:06;5.70;99.90
25640;DHT22;13497;48.322;16.204;2022-11-13T02:02:32;5.80;99.90
25640;DHT22;13497;48.322;16.204;2022-11-13T02:04:58;5.80;99.90
25640;DHT22;13497;48.322;16.204;2022-11-13T02:07:25;5.70;99.90
25640;DHT22;13497;48.322;16.204;2022-11-13T02:09:54;5.60;99.90
25640;DHT22;13497;48.322;16.204;2022-11-13T02:12:37;5.50;99.90
25640;DHT22;13497;48.322;16.204;2022-11-13T02:15:06;5.50;99.90
25640;DHT22;13497;48.322;16.204;2022-11-13T02:17:36;5.50;99.90
25640;DHT22;13497;48.322;16.204;2022-11-13T02:20:05;5.50;99.90
25640;DHT22;13497;48.322;16.204;2022-11-13T02:22:40;5.60;99.90
25640;DHT22;13497;48.322;16.204;2022-11-13T02:25:12;5.60;99.90
25640;DHT22;13497;48.322;16.204;2022-11-13T02:27:42;5.60;99.90
25640;DHT22;13497;48.322;16.204;2022-11-13T02:30:24;5.70;99.90
25640;DHT22;13497;48.322;16.204;2022-11-13T02:32:51;5.80;99.90
25640;DHT22;13497;48.322;16.204;2022-11-13T02:35:21;5.80;99.90
25640;DHT22;13497;48.322;16.204;2022-11-13T02:37:47;5.90;99.90
25640;DHT22;13497;48.322;16.204;2022-11-13T02:40:13;5.90;99.90
25640;DHT22;13497;48.322;16.204;2022-11-13T02:42:39;5.90;99.90
25640;DHT22;13497;48.322;16.204;2022-11-13T02:45:05;5.90;99.90
25640;DHT22;13497;48.322;16.204;2022-11-13T02:47:31;6.00;99.90
25640;DHT22;13497;48.322;16.204;2022-11-13T02:49:57;6.00;99.90
25640;DHT22;13497;48.322;16.204;2022-11-13T02:52:23;6.10;99.90
25640;DHT22;13497;48.322;16.204;2022-11-13T02:54:49;6.10;99.90
25640;DHT22;13497;48.322;16.204;2022-11-13T02:57:14;6.10;99.90
25640;DHT22;13497;48.322;16.204;2022-11-13T02:59:40;6.10;99.90
25640;DHT22;13497;48.322;16.204;2022-11-13T03:02:06;6.10;99.90
25640;DHT22;13497;48.322;16.204;2022-11-13T03:04:31;6.10;99.90
25640;DHT22;13497;48.322;16.204;2022-11-13T03:06:57;6.20;99.90
25640;DHT22;13497;48.322;16.204;2022-11-13T03:09:23;6.30;99.90
25640;DHT22;13497;48.322;16.204;2022-11-13T03:11:48;6.30;99.90
25640;DHT22;13497;48.322;16.204;2022-11-13T03:14:14;6.40;99.90
25640;DHT22;13497;48.322;16.204;2022-11-13T03:16:39;6.30;99.90
25640;DHT22;13497;48.322;16.204;2022-11-13T03:19:05;6.20;99.90
25640;DHT22;13497;48.322;16.204;2022-11-13T03:21:31;6.10;99.90
25640;DHT22;13497;48.322;16.204;2022-11-13T03:23:56;6.00;99.90
25640;DHT22;13497;48.322;16.204;2022-11-13T03:26:22;5.90;99.90
25640;DHT22;13497;48.322;16.204;2022-11-13T03:28:48;5.80;99.90
25640;DHT22;13497;48.322;16.204;2022-11-13T03:31:14;5.80;99.90
25640;DHT22;13497;48.322;16.204;2022-11-13T03:33:40;5.80;99.90
25640;DHT22;13497;48.322;16.204;2022-11-13T03:36:06;5.80;99.90
25640;DHT22;13497;48.322;16.204;2022-11-13T03:38:33;5.90;99.90
25640;DHT22;13497;48.322;16.204;2022-11-13T03:40:59;5.80;99.90
25640;DHT22;13497;48.322;16.204;2022-11-13T03:43:24;5.70;99.90
25640;DHT22;13497;48.322;16.204;2022-11-13T03:45:50;5.70;99.90
25640;DHT22;13497;48.322;16.204;2022-11-13T03:48:16;5.70;99.90
25640;DHT22;13497;48.322;16.204;2022-11-13T03:50:44;5.80;99.90
25640;DHT22;13497;48.322;16.204;2022-11-13T03:53:10;5.70;99.90
25640;DHT22;13497;48.322;16.204;2022-11-13T03:55:36;5.70;99.90
25640;DHT22;13497;48.322;16.204;2022-11-13T03:58:02;5.80;99.90
25640;DHT22;13497;48.322;16.204;2022-11-13T04:00:27;5.80;99.90
25640;DHT22;13497;48.322;16.204;2022-11-13T04:02:54;5.90;99.90
25640;DHT22;13497;48.322;16.204;2022-11-13T04:05:20;6.00;99.90
25640;DHT22;13497;48.322;16.204;2022-11-13T04:07:46;6.00;99.90
25640;DHT22;13497;48.322;16.204;2022-11-13T04:10:13;6.00;99.90
25640;DHT22;13497;48.322;16.204;2022-11-13T04:12:38;6.00;99.90
25640;DHT22;13497;48.322;16.204;2022-11-13T04:15:04;6.00;99.90
25640;DHT22;13497;48.322;16.204;2022-11-13T04:17:30;6.00;99.90
25640;DHT22;13497;48.322;16.204;2022-11-13T04:19:56;6.00;99.90
25640;DHT22;13497;48.322;16.204;2022-11-13T04:22:21;6.10;99.90
25640;DHT22;13497;48.322;16.204;2022-11-13T04:24:47;6.10;99.90
25640;DHT22;13497;48.322;16.204;2022-11-13T04:27:13;6.20;99.90
25640;DHT22;13497;48.322;16.204;2022-11-13T04:29:38;6.20;99.90
25640;DHT22;13497;48.322;16.204;2022-11-13T04:32:04;6.30;99.90
25640;DHT22;13497;48.322;16.204;2022-11-13T04:34:30;6.30;99.90
25640;DHT22;13497;48.322;16.204;2022-11-13T04:36:55;6.40;99.90
25640;DHT22;13497;48.322;16.204;2022-11-13T04:39:21;6.30;99.90
25640;DHT22;13497;48.322;16.204;2022-11-13T04:41:46;6.20;99.90
25640;DHT22;13497;48.322;16.204;2022-11-13T04:44:31;6.30;99.90
25640;DHT22;13497;48.322;16.204;2022-11-13T04:46:56;6.20;99.90
25640;DHT22;13497;48.322;16.204;2022-11-13T04:49:22;6.30;99.90
25640;DHT22;13497;48.322;16.204;2022-11-13T04:51:48;6.40;99.90
25640;DHT22;13497;48.322;16.204;2022-11-13T04:54:13;6.40;99.90
25640;DHT22;13497;48.322;16.204;2022-11-13T04:56:39;6.40;99.90
25640;DHT22;13497;48.322;16.204;2022-11-13T04:59:04;6.50;99.90
25640;DHT22;13497;48.322;16.204;2022-11-13T05:01:33;6.60;99.90
25640;DHT22;13497;48.322;16.204;2022-11-13T05:03:58;6.70;99.90
25640;DHT22;13497;48.322;16.204;2022-11-13T05:06:24;6.70;99.90
25640;DHT22;13497;48.322;16.204;2022-11-13T05:08:49;6.70;99.90
25640;DHT22;13497;48.322;16.204;2022-11-13T05:11:15;6.70;99.90
25640;DHT22;13497;48.322;16.204;2022-11-13T05:13:41;6.70;99.90
25640;DHT22;13497;48.322;16.204;2022-11-13T05:16:10;6.70;99.90
25640;DHT22;13497;48.322;16.204;2022-11-13T05:18:37;6.70;99.90
25640;DHT22;13497;48.322;16.204;2022-11-13T05:21:07;6.60;99.90
25640;DHT22;13497;48.322;16.204;2022-11-13T05:23:33;6.50;99.90
25640;DHT22;13497;48.322;16.204;2022-11-13T05:26:08;6.50;99.90
25640;DHT22;13497;48.322;16.204;2022-11-13T05:28:35;6.50;99.90
25640;DHT22;13497;48.322;16.204;2022-11-13T05:31:09;6.50;99.90
25640;DHT22;13497;48.322;16.204;2022-11-13T05:33:36;6.60;99.90
25640;DHT22;13497;48.322;16.204;2022-11-13T05:36:10;6.70;99.90
25640;DHT22;13497;48.322;16.204;2022-11-13T05:38:37;6.70;99.90
25640;DHT22;13497;48.322;16.204;2022-11-13T05:43:40;6.80;99.90
25640;DHT22;13497;48.322;16.204;2022-11-13T05:46:09;6.70;99.90
25640;DHT22;13497;48.322;16.204;2022-11-13T05:48:37;6.80;99.90
25640;DHT22;13497;48.322;16.204;2022-11-13T05:51:05;6.80;99.90
25640;DHT22;13497;48.322;16.204;2022-11-13T05:53:32;6.80;99.90
25640;DHT22;13497;48.322;16.204;2022-11-13T05:56:18;6.90;99.90
25640;DHT22;13497;48.322;16.204;2022-11-13T05:58:44;6.90;99.90
25640;DHT22;13497;48.322;16.204;2022-11-13T06:01:19;7.00;99.90
25640;DHT22;13497;48.322;16.204;2022-11-13T06:03:46;7.00;99.90
25640;DHT22;13497;48.322;16.204;2022-11-13T06:06:13;7.00;99.90
25640;DHT22;13497;48.322;16.204;2022-11-13T06:08:39;7.00;99.90
25640;DHT22;13497;48.322;16.204;2022-11-13T06:11:11;7.10;99.90
25640;DHT22;13497;48.322;16.204;2022-11-13T06:13:38;7.20;99.90
25640;DHT22;13497;48.322;16.204;2022-11-13T06:16:11;7.10;99.90
25640;DHT22;13497;48.322;16.204;2022-11-13T06:18:38;7.10;99.90
25640;DHT22;13497;48.322;16.204;2022-11-13T06:21:10;7.10;99.90
25640;DHT22;13497;48.322;16.204;2022-11-13T06:23:37;7.10;99.90
25640;DHT22;13497;48.322;16.204;2022-11-13T06:26:16;7.10;99.90
25640;DHT22;13497;48.322;16.204;2022-11-13T06:28:42;7.10;99.90
25640;DHT22;13497;48.322;16.204;2022-11-13T06:31:13;7.10;99.90
25640;DHT22;13497;48.322;16.204;2022-11-13T06:33:40;7.10;99.90
25640;DHT22;13497;48.322;16.204;2022-11-13T06:36:12;7.00;99.90
25640;DHT22;13497;48.322;16.204;2022-11-13T06:38:39;7.00;99.90
25640;DHT22;13497;48.322;16.204;2022-11-13T06:41:06;7.00;99.90
25640;DHT22;13497;48.322;16.204;2022-11-13T06:43:32;7.00;99.90
25640;DHT22;13497;48.322;16.204;2022-11-13T06:45:58;6.90;99.90
25640;DHT22;13497;48.322;16.204;2022-11-13T06:48:26;6.90;99.90
25640;DHT22;13497;48.322;16.204;2022-11-13T06:50:52;6.90;99.90
25640;DHT22;13497;48.322;16.204;2022-11-13T06:53:18;6.90;99.90
25640;DHT22;13497;48.322;16.204;2022-11-13T06:55:48;6.90;99.90
25640;DHT22;13497;48.322;16.204;2022-11-13T06:58:14;6.90;99.90
25640;DHT22;13497;48.322;16.204;2022-11-13T07:00:43;7.00;99.90
25640;DHT22;13497;48.322;16.204;2022-11-13T07:03:21;7.00;99.90
25640;DHT22;13497;48.322;16.204;2022-11-13T07:05:47;6.90;99.90
25640;DHT22;13497;48.322;16.204;2022-11-13T07:08:17;7.00;99.90
25640;DHT22;13497;48.322;16.204;2022-11-13T07:10:43;7.00;99.90
25640;DHT22;13497;48.322;16.204;2022-11-13T07:13:09;7.10;99.90
25640;DHT22;13497;48.322;16.204;2022-11-13T07:15:38;7.10;99.90
25640;DHT22;13497;48.322;16.204;2022-11-13T07:18:05;7.20;99.90
25640;DHT22;13497;48.322;16.204;2022-11-13T07:20:31;7.20;99.90
25640;DHT22;13497;48.322;16.204;2022-11-13T07:22:58;7.20;99.90
25640;DHT22;13497;48.322;16.204;2022-11-13T07:25:25;7.30;99.90
25640;DHT22;13497;48.322;16.204;2022-11-13T07:27:50;7.20;99.90
25640;DHT22;13497;48.322;16.204;2022-11-13T07:30:16;7.30;99.90
25640;DHT22;13497;48.322;16.204;2022-11-13T07:32:42;7.20;99.90
25640;DHT22;13497;48.322;16.204;2022-11-13T07:35:08;7.10;99.90
25640;DHT22;13497;48.322;16.204;2022-11-13T07:37:33;7.00;99.90
25640;DHT22;13497;48.322;16.204;2022-11-13T07:39:59;6.90;99.90
25640;DHT22;13497;48.322;16.204;2022-11-13T07:42:25;6.90;99.90
25640;DHT22;13497;48.322;16.204;2022-11-13T07:44:51;6.90;99.90
25640;DHT22;13497;48.322;16.204;2022-11-13T07:47:17;6.90;99.90
25640;DHT22;13497;48.322;16.204;2022-11-13T07:49:42;7.00;99.90
25640;DHT22;13497;48.322;16.204;2022-11-13T07:52:08;7.00;99.90
25640;DHT22;13497;48.322;16.204;2022-11-13T07:54:34;6.90;99.90
25640;DHT22;13497;48.322;16.204;2022-11-13T07:57:00;6.90;99.90
25640;DHT22;13497;48.322;16.204;2022-11-13T07:59:25;6.90;99.90
25640;DHT22;13497;48.322;16.204;2022-11-13T08:01:51;7.00;99.90
25640;DHT22;13497;48.322;16.204;2022-11-13T08:04:16;7.00;99.90
25640;DHT22;13497;48.322;16.204;2022-11-13T08:06:42;7.00;99.90
25640;DHT22;13497;48.322;16.204;2022-11-13T08:09:08;7.00;99.90
25640;DHT22;13497;48.322;16.204;2022-11-13T08:11:34;7.00;99.90
25640;DHT22;13497;48.322;16.204;2022-11-13T08:14:00;6.90;99.90
25640;DHT22;13497;48.322;16.204;2022-11-13T08:16:25;6.90;99.90
25640;DHT22;13497;48.322;16.204;2022-11-13T08:18:51;7.00;99.90
25640;DHT22;13497;48.322;16.204;2022-11-13T08:21:17;7.00;99.90
25640;DHT22;13497;48.322;16.204;2022-11-13T08:23:43;7.00;99.90
25640;DHT22;13497;48.322;16.204;2022-11-13T08:26:09;7.00;99.90
25640;DHT22;13497;48.322;16.204;2022-11-13T08:28:35;7.10;99.90
25640;DHT22;13497;48.322;16.204;2022-11-13T08:31:02;7.10;99.90
25640;DHT22;13497;48.322;16.204;2022-11-13T08:33:27;7.10;99.90
25640;DHT22;13497;48.322;16.204;2022-11-13T08:35:54;7.10;99.90
25640;DHT22;13497;48.322;16.204;2022-11-13T08:38:21;7.20;99.90
25640;DHT22;13497;48.322;16.204;2022-11-13T08:40:47;7.20;99.90
25640;DHT22;13497;48.322;16.204;2022-11-13T08:43:13;7.20;99.90
25640;DHT22;13497;48.322;16.204;2022-11-13T08:45:39;7.10;99.90
25640;DHT22;13497;48.322;16.204;2022-11-13T08:48:05;7.20;99.90
25640;DHT22;13497;48.322;16.204;2022-11-13T08:50:32;7.30;99.90
25640;DHT22;13497;48.322;16.204;2022-11-13T08:52:59;7.20;99.90
25640;DHT22;13497;48.322;16.204;2022-11-13T08:55:26;7.30;99.90
25640;DHT22;13497;48.322;16.204;2022-11-13T08:57:52;7.50;99.90
25640;DHT22;13497;48.322;16.204;2022-11-13T09:00:19;7.60;99.90
25640;DHT22;13497;48.322;16.204;2022-11-13T09:02:45;7.50;99.90
25640;DHT22;13497;48.322;16.204;2022-11-13T09:05:10;7.50;99.90
25640;DHT22;13497;48.322;16.204;2022-11-13T09:07:36;7.50;99.90
25640;DHT22;13497;48.322;16.204;2022-11-13T09:10:02;7.60;99.90
25640;DHT22;13497;48.322;16.204;2022-11-13T09:12:28;7.50;99.90
25640;DHT22;13497;48.322;16.204;2022-11-13T09:14:54;7.60;99.90
25640;DHT22;13497;48.322;16.204;2022-11-13T09:17:19;7.70;99.90
25640;DHT22;13497;48.322;16.204;2022-11-13T09:19:45;7.70;99.90
25640;DHT22;13497;48.322;16.204;2022-11-13T09:22:11;7.80;99.90
25640;DHT22;13497;48.322;16.204;2022-11-13T09:24:37;7.80;99.90
25640;DHT22;13497;48.322;16.204;2022-11-13T09:27:03;7.90;99.90
25640;DHT22;13497;48.322;16.204;2022-11-13T09:29:28;7.90;99.90
25640;DHT22;13497;48.322;16.204;2022-11-13T09:31:55;8.00;99.90
25640;DHT22;13497;48.322;16.204;2022-11-13T09:34:21;8.10;99.90
25640;DHT22;13497;48.322;16.204;2022-11-13T09:36:47;8.10;99.90
25640;DHT22;13497;48.322;16.204;2022-11-13T09:39:12;8.20;99.90
25640;DHT22;13497;48.322;16.204;2022-11-13T09:42:04;8.20;99.90
25640;DHT22;13497;48.322;16.204;2022-11-13T09:44:41;8.10;99.90
25640;DHT22;13497;48.322;16.204;2022-11-13T09:49:55;8.20;99.90
25640;DHT22;13497;48.322;16.204;2022-11-13T09:52:30;8.30;99.90
25640;DHT22;13497;48.322;16.204;2022-11-13T09:54:57;8.50;99.90
25640;DHT22;13497;48.322;16.204;2022-11-13T10:00:16;9.00;99.90
25640;DHT22;13497;48.322;16.204;2022-11-13T10:08:26;9.40;99.90
25640;DHT22;13497;48.322;16.204;2022-11-13T10:14:03;9.70;99.90
25640;DHT22;13497;48.322;16.204;2022-11-13T10:16:53;9.90;99.90
25640;DHT22;13497;48.322;16.204;2022-11-13T10:19:33;10.00;99.90
25640;DHT22;13497;48.322;16.204;2022-11-13T10:22:10;10.00;99.90
25640;DHT22;13497;48.322;16.204;2022-11-13T10:24:44;10.10;99.90
25640;DHT22;13497;48.322;16.204;2022-11-13T10:27:11;10.10;99.90
25640;DHT22;13497;48.322;16.204;2022-11-13T10:29:37;10.00;99.90
25640;DHT22;13497;48.322;16.204;2022-11-13T10:38:14;10.20;99.90
25640;DHT22;13497;48.322;16.204;2022-11-13T10:40:32;10.20;99.90
25640;DHT22;13497;48.322;16.204;2022-11-13T10:43:23;10.20;99.90
25640;DHT22;13497;48.322;16.204;2022-11-13T10:46:03;10.30;99.90
25640;DHT22;13497;48.322;16.204;2022-11-13T10:48:32;10.40;99.90
25640;DHT22;13497;48.322;16.204;2022-11-13T10:53:51;10.40;99.90
25640;DHT22;13497;48.322;16.204;2022-11-13T10:56:31;10.60;99.90
25640;DHT22;13497;48.322;16.204;2022-11-13T10:59:14;10.70;99.90
25640;DHT22;13497;48.322;16.204;2022-11-13T11:01:41;10.90;99.90
25640;DHT22;13497;48.322;16.204;2022-11-13T11:04:18;11.00;99.90
25640;DHT22;13497;48.322;16.204;2022-11-13T11:06:44;11.00;99.90
25640;DHT22;13497;48.322;16.204;2022-11-13T11:09:24;11.00;99.90
25640;DHT22;13497;48.322;16.204;2022-11-13T11:17:41;11.30;99.90
25640;DHT22;13497;48.322;16.204;2022-11-13T11:20:22;11.30;99.90
25640;DHT22;13497;48.322;16.204;2022-11-13T11:22:56;11.30;99.90
25640;DHT22;13497;48.322;16.204;2022-11-13T11:28:33;11.20;99.90
25640;DHT22;13497;48.322;16.204;2022-11-13T11:33:46;11.30;99.90
25640;DHT22;13497;48.322;16.204;2022-11-13T11:36:34;11.30;99.90
25640;DHT22;13497;48.322;16.204;2022-11-13T11:39:10;11.30;99.90
25640;DHT22;13497;48.322;16.204;2022-11-13T11:41:44;11.30;99.90
25640;DHT22;13497;48.322;16.204;2022-11-13T11:47:06;11.30;99.90
25640;DHT22;13497;48.322;16.204;2022-11-13T11:49:35;11.30;99.90
25640;DHT22;13497;48.322;16.204;2022-11-13T11:57:34;11.70;99.90
25640;DHT22;13497;48.322;16.204;2022-11-13T12:00:11;11.50;99.90
25640;DHT22;13497;48.322;16.204;2022-11-13T12:16:22;11.80;99.90
25640;DHT22;13497;48.322;16.204;2022-11-13T12:21:22;12.10;99.90
25640;DHT22;13497;48.322;16.204;2022-11-13T12:26:31;12.10;99.90
25640;DHT22;13497;48.322;16.204;2022-11-13T12:29:09;12.00;99.90
25640;DHT22;13497;48.322;16.204;2022-11-13T12:34:43;11.80;99.90
25640;DHT22;13497;48.322;16.204;2022-11-13T12:37:12;11.90;99.90
25640;DHT22;13497;48.322;16.204;2022-11-13T12:39:51;11.90;99.90
25640;DHT22;13497;48.322;16.204;2022-11-13T12:47:37;12.10;99.90
25640;DHT22;13497;48.322;16.204;2022-11-13T12:53:08;12.10;99.90
25640;DHT22;13497;48.322;16.204;2022-11-13T12:55:36;12.10;99.90
25640;DHT22;13497;48.322;16.204;2022-11-13T12:58:09;12.10;99.90
25640;DHT22;13497;48.322;16.204;2022-11-13T13:00:38;12.10;99.90
25640;DHT22;13497;48.322;16.204;2022-11-13T13:14:40;11.80;99.90
25640;DHT22;13497;48.322;16.204;2022-11-13T13:17:18;11.80;99.90
25640;DHT22;13497;48.322;16.204;2022-11-13T13:19:44;11.80;99.90
25640;DHT22;13497;48.322;16.204;2022-11-13T13:22:27;11.90;99.90
25640;DHT22;13497;48.322;16.204;2022-11-13T13:25:21;11.90;99.90
25640;DHT22;13497;48.322;16.204;2022-11-13T13:30:24;11.80;99.90
25640;DHT22;13497;48.322;16.204;2022-11-13T13:35:47;11.60;99.90
25640;DHT22;13497;48.322;16.204;2022-11-13T13:38:35;11.60;99.90
25640;DHT22;13497;48.322;16.204;2022-11-13T13:41:24;11.60;99.90
25640;DHT22;13497;48.322;16.204;2022-11-13T13:46:44;11.60;99.90
25640;DHT22;13497;48.322;16.204;2022-11-13T13:49:19;11.50;99.90
25640;DHT22;13497;48.322;16.204;2022-11-13T13:51:49;11.50;99.90
25640;DHT22;13497;48.322;16.204;2022-11-13T13:54:19;11.40;99.90
25640;DHT22;13497;48.322;16.204;2022-11-13T13:56:45;11.50;99.90
25640;DHT22;13497;48.322;16.204;2022-11-13T13:59:25;11.50;99.90
25640;DHT22;13497;48.322;16.204;2022-11-13T14:01:56;11.50;99.90
25640;DHT22;13497;48.322;16.204;2022-11-13T14:04:25;11.50;99.90
25640;DHT22;13497;48.322;16.204;2022-11-13T14:06:56;11.50;99.90
25640;DHT22;13497;48.322;16.204;2022-11-13T14:09:25;11.40;99.90
25640;DHT22;13497;48.322;16.204;2022-11-13T14:12:05;11.40;99.90
25640;DHT22;13497;48.322;16.204;2022-11-13T14:14:31;11.30;99.90
25640;DHT22;13497;48.322;16.204;2022-11-13T14:16:58;11.40;99.90
25640;DHT22;13497;48.322;16.204;2022-11-13T14:19:28;11.30;99.90
25640;DHT22;13497;48.322;16.204;2022-11-13T14:21:58;11.30;99.90
25640;DHT22;13497;48.322;16.204;2022-11-13T14:24:51;11.20;99.90
25640;DHT22;13497;48.322;16.204;2022-11-13T14:27:20;11.20;99.90
25640;DHT22;13497;48.322;16.204;2022-11-13T14:29:48;11.10;99.90
25640;DHT22;13497;48.322;16.204;2022-11-13T14:34:44;11.00;99.90
25640;DHT22;13497;48.322;16.204;2022-11-13T14:37:30;10.90;99.90
25640;DHT22;13497;48.322;16.204;2022-11-13T14:39:58;10.90;99.90
25640;DHT22;13497;48.322;16.204;2022-11-13T14:42:46;10.80;99.90
25640;DHT22;13497;48.322;16.204;2022-11-13T14:47:55;10.70;99.90
25640;DHT22;13497;48.322;16.204;2022-11-13T14:50:26;10.60;99.90
25640;DHT22;13497;48.322;16.204;2022-11-13T14:53:05;10.60;99.90
25640;DHT22;13497;48.322;16.204;2022-11-13T14:55:52;10.50;99.90
25640;DHT22;13497;48.322;16.204;2022-11-13T14:58:29;10.40;99.90
25640;DHT22;13497;48.322;16.204;2022-11-13T15:00:56;10.30;99.90
25640;DHT22;13497;48.322;16.204;2022-11-13T15:03:23;10.30;99.90
25640;DHT22;13497;48.322;16.204;2022-11-13T15:05:49;10.20;99.90
25640;DHT22;13497;48.322;16.204;2022-11-13T15:08:15;10.10;99.90
25640;DHT22;13497;48.322;16.204;2022-11-13T15:10:41;10.10;99.90
25640;DHT22;13497;48.322;16.204;2022-11-13T15:13:15;10.00;99.90
25640;DHT22;13497;48.322;16.204;2022-11-13T15:15:41;10.00;99.90
25640;DHT22;13497;48.322;16.204;2022-11-13T15:18:13;9.90;99.90
25640;DHT22;13497;48.322;16.204;2022-11-13T15:20:41;9.70;99.90
25640;DHT22;13497;48.322;16.204;2022-11-13T15:23:11;9.50;99.90
25640;DHT22;13497;48.322;16.204;2022-11-13T15:25:37;9.40;99.90
25640;DHT22;13497;48.322;16.204;2022-11-13T15:28:03;9.20;99.90
25640;DHT22;13497;48.322;16.204;2022-11-13T15:30:29;9.10;99.90
25640;DHT22;13497;48.322;16.204;2022-11-13T15:32:54;9.00;99.90
25640;DHT22;13497;48.322;16.204;2022-11-13T15:35:21;8.90;99.90
25640;DHT22;13497;48.322;16.204;2022-11-13T15:37:47;8.80;99.90
25640;DHT22;13497;48.322;16.204;2022-11-13T15:40:13;8.80;99.90
25640;DHT22;13497;48.322;16.204;2022-11-13T15:42:39;8.70;99.90
25640;DHT22;13497;48.322;16.204;2022-11-13T15:45:06;8.60;99.90
25640;DHT22;13497;48.322;16.204;2022-11-13T15:47:35;8.60;99.90
25640;DHT22;13497;48.322;16.204;2022-11-13T15:50:03;8.60;99.90
25640;DHT22;13497;48.322;16.204;2022-11-13T15:52:34;8.60;99.90
25640;DHT22;13497;48.322;16.204;2022-11-13T15:55:00;8.60;99.90
25640;DHT22;13497;48.322;16.204;2022-11-13T15:57:28;8.60;99.90
25640;DHT22;13497;48.322;16.204;2022-11-13T15:59:54;8.60;99.90
25640;DHT22;13497;48.322;16.204;2022-11-13T16:02:21;8.60;99.90
25640;DHT22;13497;48.322;16.204;2022-11-13T16:04:47;8.60;99.90
25640;DHT22;13497;48.322;16.204;2022-11-13T16:07:17;8.50;99.90
25640;DHT22;13497;48.322;16.204;2022-11-13T16:09:44;8.50;99.90
25640;DHT22;13497;48.322;16.204;2022-11-13T16:12:11;8.50;99.90
25640;DHT22;13497;48.322;16.204;2022-11-13T16:14:37;8.50;99.90
25640;DHT22;13497;48.322;16.204;2022-11-13T16:17:08;8.40;99.90
25640;DHT22;13497;48.322;16.204;2022-11-13T16:19:36;8.40;99.90
25640;DHT22;13497;48.322;16.204;2022-11-13T16:22:02;8.30;99.90
25640;DHT22;13497;48.322;16.204;2022-11-13T16:24:28;8.30;99.90
25640;DHT22;13497;48.322;16.204;2022-11-13T16:26:56;8.30;99.90
25640;DHT22;13497;48.322;16.204;2022-11-13T16:29:23;8.30;99.90
25640;DHT22;13497;48.322;16.204;2022-11-13T16:31:49;8.30;99.90
25640;DHT22;13497;48.322;16.204;2022-11-13T16:34:15;8.30;99.90
25640;DHT22;13497;48.322;16.204;2022-11-13T16:36:40;8.20;99.90
25640;DHT22;13497;48.322;16.204;2022-11-13T16:39:13;8.20;99.90
25640;DHT22;13497;48.322;16.204;2022-11-13T16:41:39;8.30;99.90
25640;DHT22;13497;48.322;16.204;2022-11-13T16:44:05;8.30;99.90
25640;DHT22;13497;48.322;16.204;2022-11-13T16:46:32;8.30;99.90
25640;DHT22;13497;48.322;16.204;2022-11-13T16:48:58;8.30;99.90
25640;DHT22;13497;48.322;16.204;2022-11-13T16:51:23;8.20;99.90
25640;DHT22;13497;48.322;16.204;2022-11-13T16:53:49;8.20;99.90
25640;DHT22;13497;48.322;16.204;2022-11-13T16:56:26;8.20;99.90
25640;DHT22;13497;48.322;16.204;2022-11-13T16:58:58;8.20;99.90
25640;DHT22;13497;48.322;16.204;2022-11-13T17:01:24;8.20;99.90
25640;DHT22;13497;48.322;16.204;2022-11-13T17:03:50;8.30;99.90
25640;DHT22;13497;48.322;16.204;2022-11-13T17:06:30;8.30;99.90
25640;DHT22;13497;48.322;16.204;2022-11-13T17:08:58;8.30;99.90
25640;DHT22;13497;48.322;16.204;2022-11-13T17:11:26;8.30;99.90
25640;DHT22;13497;48.322;16.204;2022-11-13T17:13:55;8.30;99.90
25640;DHT22;13497;48.322;16.204;2022-11-13T17:16:21;8.30;99.90
25640;DHT22;13497;48.322;16.204;2022-11-13T17:18:48;8.30;99.90
25640;DHT22;13497;48.322;16.204;2022-11-13T17:21:17;8.20;99.90